sensor_id;sensor_type;location;lat;lon;timestamp;pressure;altitude;pressure_sealevel;temperature;humidity
76054;BME280;64752;48.870;9.082;2024-03-25T00:01:22;97213.31;;;5.83;94.93
76054;BME280;64752;48.870;9.082;2024-03-25T00:03:48;97216.78;;;5.80;95.49
76054;BME280;64752;48.870;9.082;2024-03-25T00:06:13;97212.47;;;5.80;96.34
76054;BME280;64752;48.870;9.082;2024-03-25T00:08:39;97214.34;;;5.75;95.80
76054;BME280;64752;48.870;9.082;2024-03-25T00:11:04;97214.47;;;5.71;96.40
76054;BME280;64752;48.870;9.082;2024-03-25T00:13:29;97212.88;;;5.67;97.58
76054;BME280;64752;48.870;9.082;2024-03-25T00:15:55;97200.81;;;5.69;95.97
76054;BME280;64752;48.870;9.082;2024-03-25T00:18:21;97207.81;;;5.64;97.11
76054;BME280;64752;48.870;9.082;2024-03-25T00:20:46;97212.09;;;5.65;96.88
76054;BME280;64752;48.870;9.082;2024-03-25T00:23:11;97212.09;;;5.65;96.19
76054;BME280;64752;48.870;9.082;2024-03-25T00:25:37;97211.38;;;5.59;96.87
76054;BME280;64752;48.870;9.082;2024-03-25T00:28:02;97212.44;;;5.52;98.06
76054;BME280;64752;48.870;9.082;2024-03-25T00:30:30;97208.97;;;5.53;98.05
76054;BME280;64752;48.870;9.082;2024-03-25T00:32:55;97206.47;;;5.50;98.08
76054;BME280;64752;48.870;9.082;2024-03-25T00:35:21;97198.06;;;5.45;97.77
76054;BME280;64752;48.870;9.082;2024-03-25T00:37:46;97205.06;;;5.38;98.58
76054;BME280;64752;48.870;9.082;2024-03-25T00:40:12;97197.56;;;5.31;99.13
76054;BME280;64752;48.870;9.082;2024-03-25T00:42:37;97203.88;;;5.20;100.00
76054;BME280;64752;48.870;9.082;2024-03-25T00:45:03;97196.81;;;5.27;99.53
76054;BME280;64752;48.870;9.082;2024-03-25T00:47:31;97200.28;;;5.26;100.00
76054;BME280;64752;48.870;9.082;2024-03-25T00:49:56;97206.22;;;5.28;100.00
76054;BME280;64752;48.870;9.082;2024-03-25T00:52:21;97208.06;;;5.23;99.91
76054;BME280;64752;48.870;9.082;2024-03-25T00:54:47;97208.88;;;5.25;100.00
76054;BME280;64752;48.870;9.082;2024-03-25T00:57:12;97213.09;;;5.28;100.00
76054;BME280;64752;48.870;9.082;2024-03-25T00:59:38;97214.91;;;5.24;100.00
76054;BME280;64752;48.870;9.082;2024-03-25T01:02:04;97216.63;;;5.24;100.00
76054;BME280;64752;48.870;9.082;2024-03-25T01:04:29;97209.84;;;5.21;100.00
76054;BME280;64752;48.870;9.082;2024-03-25T01:06:55;97206.47;;;5.19;100.00
76054;BME280;64752;48.870;9.082;2024-03-25T01:09:20;97208.91;;;5.24;100.00
76054;BME280;64752;48.870;9.082;2024-03-25T01:11:47;97201.88;;;5.30;100.00
76054;BME280;64752;48.870;9.082;2024-03-25T01:14:13;97202.84;;;5.26;99.79
76054;BME280;64752;48.870;9.082;2024-03-25T01:16:38;97201.19;;;5.24;100.00
76054;BME280;64752;48.870;9.082;2024-03-25T01:19:03;97193.50;;;5.24;100.00
76054;BME280;64752;48.870;9.082;2024-03-25T01:21:29;97193.50;;;5.24;100.00
76054;BME280;64752;48.870;9.082;2024-03-25T01:23:55;97190.78;;;5.30;99.66
76054;BME280;64752;48.870;9.082;2024-03-25T01:26:20;97187.25;;;5.32;99.87
76054;BME280;64752;48.870;9.082;2024-03-25T01:28:46;97185.41;;;5.37;98.78
76054;BME280;64752;48.870;9.082;2024-03-25T01:31:12;97187.09;;;5.38;99.23
76054;BME280;64752;48.870;9.082;2024-03-25T01:33:37;97185.41;;;5.37;98.50
76054;BME280;64752;48.870;9.082;2024-03-25T01:36:02;97179.47;;;5.35;99.79
76054;BME280;64752;48.870;9.082;2024-03-25T01:38:28;97187.34;;;5.29;99.39
76054;BME280;64752;48.870;9.082;2024-03-25T01:40:53;97184.94;;;5.23;100.00
76054;BME280;64752;48.870;9.082;2024-03-25T01:43:19;97176.22;;;5.29;100.00
76054;BME280;64752;48.870;9.082;2024-03-25T01:45:45;97184.16;;;5.21;100.00
76054;BME280;64752;48.870;9.082;2024-03-25T01:48:11;97185.94;;;5.17;100.00
76054;BME280;64752;48.870;9.082;2024-03-25T01:50:41;97189.31;;;5.19;100.00
76054;BME280;64752;48.870;9.082;2024-03-25T01:53:08;97193.41;;;5.27;100.00
76054;BME280;64752;48.870;9.082;2024-03-25T01:55:35;97190.91;;;5.24;100.00
76054;BME280;64752;48.870;9.082;2024-03-25T01:58:03;97187.22;;;5.34;99.37
76054;BME280;64752;48.870;9.082;2024-03-25T02:00:29;97187.94;;;5.39;98.98
76054;BME280;64752;48.870;9.082;2024-03-25T02:02:55;97190.34;;;5.45;98.09
76054;BME280;64752;48.870;9.082;2024-03-25T02:05:22;97183.56;;;5.43;98.48
76054;BME280;64752;48.870;9.082;2024-03-25T02:07:48;97187.75;;;5.45;98.21
76054;BME280;64752;48.870;9.082;2024-03-25T02:10:15;97185.16;;;5.47;97.80
76054;BME280;64752;48.870;9.082;2024-03-25T02:12:41;97187.94;;;5.39;98.67
76054;BME280;64752;48.870;9.082;2024-03-25T02:15:08;97186.13;;;5.43;98.73
76054;BME280;64752;48.870;9.082;2024-03-25T02:17:34;97180.84;;;5.47;97.31
76054;BME280;64752;48.870;9.082;2024-03-25T02:20:00;97183.34;;;5.50;97.39
76054;BME280;64752;48.870;9.082;2024-03-25T02:22:26;97183.41;;;5.47;97.28
76054;BME280;64752;48.870;9.082;2024-03-25T02:24:52;97180.00;;;5.47;97.50
76054;BME280;64752;48.870;9.082;2024-03-25T02:27:18;97184.94;;;5.54;97.10
76054;BME280;64752;48.870;9.082;2024-03-25T02:29:44;97188.41;;;5.53;97.33
76054;BME280;64752;48.870;9.082;2024-03-25T02:32:10;97182.38;;;5.54;96.89
76054;BME280;64752;48.870;9.082;2024-03-25T02:34:41;97180.72;;;5.52;97.02
76054;BME280;64752;48.870;9.082;2024-03-25T02:37:07;97183.38;;;5.49;97.87
76054;BME280;64752;48.870;9.082;2024-03-25T02:39:33;97180.72;;;5.52;97.70
76054;BME280;64752;48.870;9.082;2024-03-25T02:41:59;97175.63;;;5.50;97.57
76054;BME280;64752;48.870;9.082;2024-03-25T02:44:24;97181.59;;;5.51;97.24
76054;BME280;64752;48.870;9.082;2024-03-25T02:46:50;97178.13;;;5.53;96.75
76054;BME280;64752;48.870;9.082;2024-03-25T02:49:16;97180.81;;;5.49;97.37
76054;BME280;64752;48.870;9.082;2024-03-25T02:51:41;97178.25;;;5.49;97.36
76054;BME280;64752;48.870;9.082;2024-03-25T02:54:06;97174.16;;;5.41;97.84
76054;BME280;64752;48.870;9.082;2024-03-25T02:56:34;97182.75;;;5.40;97.95
76054;BME280;64752;48.870;9.082;2024-03-25T02:58:59;97175.09;;;5.39;97.58
76054;BME280;64752;48.870;9.082;2024-03-25T03:01:25;97183.56;;;5.43;97.00
76054;BME280;64752;48.870;9.082;2024-03-25T03:03:50;97180.19;;;5.40;97.17
76054;BME280;64752;48.870;9.082;2024-03-25T03:06:15;97178.53;;;5.38;97.21
76054;BME280;64752;48.870;9.082;2024-03-25T03:08:41;97182.75;;;5.40;97.06
76054;BME280;64752;48.870;9.082;2024-03-25T03:11:06;97187.03;;;5.40;97.58
76054;BME280;64752;48.870;9.082;2024-03-25T03:13:31;97185.34;;;5.40;97.68
76054;BME280;64752;48.870;9.082;2024-03-25T03:15:57;97185.44;;;5.36;97.32
76054;BME280;64752;48.870;9.082;2024-03-25T03:18:22;97180.34;;;5.34;97.42
76054;BME280;64752;48.870;9.082;2024-03-25T03:20:47;97178.75;;;5.30;97.77
76054;BME280;64752;48.870;9.082;2024-03-25T03:23:14;97183.94;;;5.29;98.04
76054;BME280;64752;48.870;9.082;2024-03-25T03:25:40;97172.81;;;5.28;97.96
76054;BME280;64752;48.870;9.082;2024-03-25T03:28:05;97175.41;;;5.27;97.75
76054;BME280;64752;48.870;9.082;2024-03-25T03:30:31;97173.03;;;5.20;98.34
76054;BME280;64752;48.870;9.082;2024-03-25T03:32:56;97172.38;;;5.12;99.28
76054;BME280;64752;48.870;9.082;2024-03-25T03:35:21;97174.19;;;5.09;99.90
76054;BME280;64752;48.870;9.082;2024-03-25T03:37:47;97176.00;;;5.05;99.97
76054;BME280;64752;48.870;9.082;2024-03-25T03:40:12;97174.53;;;4.96;100.00
76054;BME280;64752;48.870;9.082;2024-03-25T03:42:39;97181.41;;;4.94;100.00
76054;BME280;64752;48.870;9.082;2024-03-25T03:45:05;97182.38;;;4.90;100.00
76054;BME280;64752;48.870;9.082;2024-03-25T03:47:30;97180.78;;;4.86;100.00
76054;BME280;64752;48.870;9.082;2024-03-25T03:49:56;97178.81;;;4.96;100.00
76054;BME280;64752;48.870;9.082;2024-03-25T03:52:22;97175.56;;;4.89;100.00
76054;BME280;64752;48.870;9.082;2024-03-25T03:54:47;97180.72;;;4.89;100.00
76054;BME280;64752;48.870;9.082;2024-03-25T03:57:13;97178.97;;;4.90;100.00
76054;BME280;64752;48.870;9.082;2024-03-25T03:59:38;97182.47;;;4.87;100.00
76054;BME280;64752;48.870;9.082;2024-03-25T04:02:04;97193.00;;;4.78;100.00
76054;BME280;64752;48.870;9.082;2024-03-25T04:04:29;97191.13;;;4.83;100.00
76054;BME280;64752;48.870;9.082;2024-03-25T04:06:55;97192.84;;;4.82;100.00
76054;BME280;64752;48.870;9.082;2024-03-25T04:09:20;97195.56;;;4.78;100.00
76054;BME280;64752;48.870;9.082;2024-03-25T04:11:46;97201.31;;;4.86;100.00
76054;BME280;64752;48.870;9.082;2024-03-25T04:14:12;97191.97;;;4.83;100.00
76054;BME280;64752;48.870;9.082;2024-03-25T04:16:37;97196.16;;;4.88;100.00
76054;BME280;64752;48.870;9.082;2024-03-25T04:19:02;97192.66;;;4.90;100.00
76054;BME280;64752;48.870;9.082;2024-03-25T04:21:28;97203.69;;;4.94;100.00
76054;BME280;64752;48.870;9.082;2024-03-25T04:23:53;97193.41;;;4.94;100.00
76054;BME280;64752;48.870;9.082;2024-03-25T04:26:19;97189.22;;;4.91;100.00
76054;BME280;64752;48.870;9.082;2024-03-25T04:28:44;97186.66;;;4.91;100.00
76054;BME280;64752;48.870;9.082;2024-03-25T04:31:10;97185.63;;;4.97;100.00
76054;BME280;64752;48.870;9.082;2024-03-25T04:33:35;97177.88;;;5.00;100.00
76054;BME280;64752;48.870;9.082;2024-03-25T04:36:00;97173.69;;;4.94;100.00
76054;BME280;64752;48.870;9.082;2024-03-25T04:38:26;97180.53;;;4.95;100.00
76054;BME280;64752;48.870;9.082;2024-03-25T04:40:51;97179.69;;;4.95;100.00
76054;BME280;64752;48.870;9.082;2024-03-25T04:43:16;97180.72;;;4.89;100.00
76054;BME280;64752;48.870;9.082;2024-03-25T04:45:42;97180.72;;;4.89;100.00
76054;BME280;64752;48.870;9.082;2024-03-25T04:48:08;97178.22;;;4.86;100.00
76054;BME280;64752;48.870;9.082;2024-03-25T04:50:33;97184.41;;;4.77;100.00
76054;BME280;64752;48.870;9.082;2024-03-25T04:52:59;97191.50;;;4.68;100.00
76054;BME280;64752;48.870;9.082;2024-03-25T04:55:24;97195.38;;;4.50;100.00
76054;BME280;64752;48.870;9.082;2024-03-25T04:57:50;97202.31;;;4.44;100.00
76054;BME280;64752;48.870;9.082;2024-03-25T05:00:16;97196.59;;;4.33;100.00
76054;BME280;64752;48.870;9.082;2024-03-25T05:02:41;97198.59;;;4.22;100.00
76054;BME280;64752;48.870;9.082;2024-03-25T05:05:06;97192.78;;;4.14;100.00
76054;BME280;64752;48.870;9.082;2024-03-25T05:07:33;97196.41;;;4.05;100.00
76054;BME280;64752;48.870;9.082;2024-03-25T05:09:58;97193.25;;;3.94;100.00
76054;BME280;64752;48.870;9.082;2024-03-25T05:12:24;97186.72;;;3.79;100.00
76054;BME280;64752;48.870;9.082;2024-03-25T05:14:52;97202.19;;;3.74;100.00
76054;BME280;64752;48.870;9.082;2024-03-25T05:17:17;97204.75;;;3.74;100.00
76054;BME280;64752;48.870;9.082;2024-03-25T05:19:43;97198.00;;;3.70;100.00
76054;BME280;64752;48.870;9.082;2024-03-25T05:22:08;97211.00;;;3.62;100.00
76054;BME280;64752;48.870;9.082;2024-03-25T05:24:34;97210.09;;;3.63;100.00
76054;BME280;64752;48.870;9.082;2024-03-25T05:26:59;97217.03;;;3.58;100.00
76054;BME280;64752;48.870;9.082;2024-03-25T05:29:24;97211.97;;;3.55;100.00
76054;BME280;64752;48.870;9.082;2024-03-25T05:32:00;97211.06;;;3.58;100.00
76054;BME280;64752;48.870;9.082;2024-03-25T05:34:26;97215.44;;;3.53;100.00
76054;BME280;64752;48.870;9.082;2024-03-25T05:36:52;97210.03;;;3.66;100.00
76054;BME280;64752;48.870;9.082;2024-03-25T05:39:18;97218.41;;;3.75;100.00
76054;BME280;64752;48.870;9.082;2024-03-25T05:41:44;97216.59;;;3.80;100.00
76054;BME280;64752;48.870;9.082;2024-03-25T05:44:09;97211.44;;;3.81;100.00
76054;BME280;64752;48.870;9.082;2024-03-25T05:46:35;97219.88;;;3.88;100.00
76054;BME280;64752;48.870;9.082;2024-03-25T05:49:03;97225.78;;;3.90;100.00
76054;BME280;64752;48.870;9.082;2024-03-25T05:51:30;97219.06;;;3.86;100.00
76054;BME280;64752;48.870;9.082;2024-03-25T05:53:55;97228.38;;;3.89;100.00
76054;BME280;64752;48.870;9.082;2024-03-25T05:56:20;97227.56;;;3.88;100.00
76054;BME280;64752;48.870;9.082;2024-03-25T05:58:46;97220.63;;;3.92;100.00
76054;BME280;64752;48.870;9.082;2024-03-25T06:01:12;97221.38;;;3.97;100.00
76054;BME280;64752;48.870;9.082;2024-03-25T06:03:37;97222.25;;;3.96;100.00
76054;BME280;64752;48.870;9.082;2024-03-25T06:06:02;97220.50;;;3.98;100.00
76054;BME280;64752;48.870;9.082;2024-03-25T06:08:28;97215.41;;;3.95;100.00
76054;BME280;64752;48.870;9.082;2024-03-25T06:10:54;97221.31;;;4.00;100.00
76054;BME280;64752;48.870;9.082;2024-03-25T06:13:20;97219.47;;;4.07;100.00
76054;BME280;64752;48.870;9.082;2024-03-25T06:15:46;97230.56;;;4.07;100.00
76054;BME280;64752;48.870;9.082;2024-03-25T06:18:12;97227.19;;;4.05;100.00
76054;BME280;64752;48.870;9.082;2024-03-25T06:20:38;97226.22;;;4.11;100.00
76054;BME280;64752;48.870;9.082;2024-03-25T06:23:03;97225.25;;;4.15;100.00
76054;BME280;64752;48.870;9.082;2024-03-25T06:25:30;97229.34;;;4.23;100.00
76054;BME280;64752;48.870;9.082;2024-03-25T06:27:55;97232.66;;;4.29;100.00
76054;BME280;64752;48.870;9.082;2024-03-25T06:30:21;97226.41;;;4.39;100.00
76054;BME280;64752;48.870;9.082;2024-03-25T06:33:05;97221.13;;;4.81;100.00
76054;BME280;64752;48.870;9.082;2024-03-25T06:35:49;97222.38;;;5.94;100.00
76054;BME280;64752;48.870;9.082;2024-03-25T06:38:14;97227.34;;;7.36;93.87
76054;BME280;64752;48.870;9.082;2024-03-25T06:40:39;97226.44;;;8.09;86.68
76054;BME280;64752;48.870;9.082;2024-03-25T06:43:05;97223.63;;;8.81;82.96
76054;BME280;64752;48.870;9.082;2024-03-25T06:45:31;97230.78;;;9.38;78.77
76054;BME280;64752;48.870;9.082;2024-03-25T06:47:57;97226.75;;;9.91;73.51
76054;BME280;64752;48.870;9.082;2024-03-25T06:50:25;97225.41;;;9.82;74.94
76054;BME280;64752;48.870;9.082;2024-03-25T06:52:50;97230.03;;;10.51;71.76
76054;BME280;64752;48.870;9.082;2024-03-25T06:55:16;97229.41;;;11.17;67.74
76054;BME280;64752;48.870;9.082;2024-03-25T06:57:45;97235.44;;;11.18;68.00
76054;BME280;64752;48.870;9.082;2024-03-25T07:00:11;97230.97;;;11.55;65.82
76054;BME280;64752;48.870;9.082;2024-03-25T07:02:41;97237.75;;;11.57;64.66
76054;BME280;64752;48.870;9.082;2024-03-25T07:05:07;97240.66;;;11.34;66.17
76054;BME280;64752;48.870;9.082;2024-03-25T07:07:32;97239.22;;;11.46;66.57
76054;BME280;64752;48.870;9.082;2024-03-25T07:09:59;97240.00;;;11.30;65.04
76054;BME280;64752;48.870;9.082;2024-03-25T07:12:24;97235.84;;;11.61;64.19
76054;BME280;64752;48.870;9.082;2024-03-25T07:14:49;97242.59;;;11.99;62.06
76054;BME280;64752;48.870;9.082;2024-03-25T07:17:15;97237.25;;;10.45;66.09
76054;BME280;64752;48.870;9.082;2024-03-25T07:19:40;97241.59;;;10.98;64.91
76054;BME280;64752;48.870;9.082;2024-03-25T07:22:06;97242.69;;;10.00;67.81
76054;BME280;64752;48.870;9.082;2024-03-25T07:24:32;97240.59;;;11.35;62.56
76054;BME280;64752;48.870;9.082;2024-03-25T07:26:57;97236.56;;;10.95;63.52
76054;BME280;64752;48.870;9.082;2024-03-25T07:29:22;97224.28;;;10.98;62.81
76054;BME280;64752;48.870;9.082;2024-03-25T07:31:48;97228.44;;;11.53;62.16
76054;BME280;64752;48.870;9.082;2024-03-25T07:34:13;97220.03;;;13.54;58.24
76054;BME280;64752;48.870;9.082;2024-03-25T07:36:38;97221.19;;;15.41;49.97
76054;BME280;64752;48.870;9.082;2024-03-25T07:39:04;97215.66;;;15.33;48.82
76054;BME280;64752;48.870;9.082;2024-03-25T07:41:36;97216.06;;;14.74;49.09
76054;BME280;64752;48.870;9.082;2024-03-25T07:44:01;97222.97;;;14.19;50.76
76054;BME280;64752;48.870;9.082;2024-03-25T07:46:27;97223.41;;;15.35;47.07
76054;BME280;64752;48.870;9.082;2024-03-25T07:48:52;97219.63;;;16.16;44.26
76054;BME280;64752;48.870;9.082;2024-03-25T07:51:17;97211.84;;;15.77;42.77
76054;BME280;64752;48.870;9.082;2024-03-25T07:53:43;97215.91;;;13.78;45.56
76054;BME280;64752;48.870;9.082;2024-03-25T07:56:08;97212.97;;;15.86;42.31
76054;BME280;64752;48.870;9.082;2024-03-25T07:58:34;97214.34;;;15.79;43.01
76054;BME280;64752;48.870;9.082;2024-03-25T08:00:59;97215.94;;;17.50;40.84
76054;BME280;64752;48.870;9.082;2024-03-25T08:03:25;97221.09;;;17.75;40.65
76054;BME280;64752;48.870;9.082;2024-03-25T08:05:51;97222.38;;;17.35;41.64
76054;BME280;64752;48.870;9.082;2024-03-25T08:08:16;97219.69;;;18.16;39.11
76054;BME280;64752;48.870;9.082;2024-03-25T08:10:42;97218.25;;;16.84;38.97
76054;BME280;64752;48.870;9.082;2024-03-25T08:13:07;97218.03;;;16.50;40.70
76054;BME280;64752;48.870;9.082;2024-03-25T08:15:32;97219.28;;;17.64;39.45
76054;BME280;64752;48.870;9.082;2024-03-25T08:17:58;97214.41;;;17.59;38.06
76054;BME280;64752;48.870;9.082;2024-03-25T08:20:23;97215.66;;;18.66;38.19
76054;BME280;64752;48.870;9.082;2024-03-25T08:22:49;97219.22;;;18.77;37.45
76054;BME280;64752;48.870;9.082;2024-03-25T08:25:14;97204.72;;;16.77;40.89
76054;BME280;64752;48.870;9.082;2024-03-25T08:27:40;97212.38;;;18.97;36.98
76054;BME280;64752;48.870;9.082;2024-03-25T08:30:05;97205.03;;;19.84;34.53
76054;BME280;64752;48.870;9.082;2024-03-25T08:32:31;97200.41;;;16.28;38.79
76054;BME280;64752;48.870;9.082;2024-03-25T08:34:58;97199.44;;;16.42;40.31
76054;BME280;64752;48.870;9.082;2024-03-25T08:37:23;97188.66;;;16.10;41.56
76054;BME280;64752;48.870;9.082;2024-03-25T08:39:51;97194.81;;;14.66;43.12
76054;BME280;64752;48.870;9.082;2024-03-25T08:42:16;97195.47;;;17.67;38.76
76054;BME280;64752;48.870;9.082;2024-03-25T08:44:42;97194.94;;;19.38;36.27
76054;BME280;64752;48.870;9.082;2024-03-25T08:47:07;97197.22;;;18.45;36.27
76054;BME280;64752;48.870;9.082;2024-03-25T08:49:32;97203.78;;;19.58;33.33
76054;BME280;64752;48.870;9.082;2024-03-25T08:51:58;97197.28;;;17.78;35.41
76054;BME280;64752;48.870;9.082;2024-03-25T08:54:23;97191.28;;;19.50;33.65
76054;BME280;64752;48.870;9.082;2024-03-25T08:56:48;97190.75;;;20.88;32.03
76054;BME280;64752;48.870;9.082;2024-03-25T08:59:14;97191.88;;;20.75;31.65
76054;BME280;64752;48.870;9.082;2024-03-25T09:01:39;97190.28;;;21.61;30.22
76054;BME280;64752;48.870;9.082;2024-03-25T09:04:05;97181.94;;;22.76;29.14
76054;BME280;64752;48.870;9.082;2024-03-25T09:06:30;97176.56;;;21.85;30.38
76054;BME280;64752;48.870;9.082;2024-03-25T09:08:56;97166.97;;;20.29;32.64
76054;BME280;64752;48.870;9.082;2024-03-25T09:11:40;97164.78;;;20.54;32.45
76054;BME280;64752;48.870;9.082;2024-03-25T09:14:05;97170.66;;;20.87;30.77
76054;BME280;64752;48.870;9.082;2024-03-25T09:16:31;97170.03;;;21.32;30.39
76054;BME280;64752;48.870;9.082;2024-03-25T09:18:57;97162.28;;;22.43;27.44
76054;BME280;64752;48.870;9.082;2024-03-25T09:21:22;97157.47;;;20.67;30.79
76054;BME280;64752;48.870;9.082;2024-03-25T09:23:49;97168.81;;;22.11;29.37
76054;BME280;64752;48.870;9.082;2024-03-25T09:26:15;97166.81;;;23.04;27.89
76054;BME280;64752;48.870;9.082;2024-03-25T09:28:40;97168.19;;;21.99;29.31
76054;BME280;64752;48.870;9.082;2024-03-25T09:31:06;97168.38;;;21.88;27.95
76054;BME280;64752;48.870;9.082;2024-03-25T09:33:31;97150.19;;;20.30;31.14
76054;BME280;64752;48.870;9.082;2024-03-25T09:35:56;97141.03;;;21.42;29.09
76054;BME280;64752;48.870;9.082;2024-03-25T09:38:22;97144.59;;;22.43;28.38
76054;BME280;64752;48.870;9.082;2024-03-25T09:40:47;97138.59;;;24.42;26.20
76054;BME280;64752;48.870;9.082;2024-03-25T09:43:16;97137.75;;;23.83;25.81
76054;BME280;64752;48.870;9.082;2024-03-25T09:45:48;97131.38;;;23.76;25.46
76054;BME280;64752;48.870;9.082;2024-03-25T09:48:16;97118.44;;;21.10;29.42
76054;BME280;64752;48.870;9.082;2024-03-25T09:50:44;97128.13;;;21.76;29.50
76054;BME280;64752;48.870;9.082;2024-03-25T09:53:10;97127.72;;;18.61;31.36
76054;BME280;64752;48.870;9.082;2024-03-25T09:55:36;97119.75;;;18.83;31.21
76054;BME280;64752;48.870;9.082;2024-03-25T09:58:07;97113.00;;;22.06;28.25
76054;BME280;64752;48.870;9.082;2024-03-25T10:00:36;97109.44;;;22.43;26.33
76054;BME280;64752;48.870;9.082;2024-03-25T10:03:01;97109.00;;;19.38;30.72
76054;BME280;64752;48.870;9.082;2024-03-25T10:05:26;97106.38;;;21.64;28.63
76054;BME280;64752;48.870;9.082;2024-03-25T10:07:52;97099.09;;;20.62;29.44
76054;BME280;64752;48.870;9.082;2024-03-25T10:10:20;97101.84;;;21.84;27.92
76054;BME280;64752;48.870;9.082;2024-03-25T10:12:46;97088.81;;;23.08;26.55
76054;BME280;64752;48.870;9.082;2024-03-25T10:15:17;97081.41;;;23.12;25.98
76054;BME280;64752;48.870;9.082;2024-03-25T10:17:43;97090.66;;;23.08;25.77
76054;BME280;64752;48.870;9.082;2024-03-25T10:20:18;97076.38;;;22.39;27.40
76054;BME280;64752;48.870;9.082;2024-03-25T10:22:44;97079.69;;;22.41;26.37
76054;BME280;64752;48.870;9.082;2024-03-25T10:25:23;97074.00;;;23.42;25.68
76054;BME280;64752;48.870;9.082;2024-03-25T10:27:56;97062.13;;;23.80;26.06
76054;BME280;64752;48.870;9.082;2024-03-25T10:30:22;97069.91;;;23.90;24.56
76054;BME280;64752;48.870;9.082;2024-03-25T10:33:00;97056.63;;;20.07;28.96
76054;BME280;64752;48.870;9.082;2024-03-25T10:35:27;97055.25;;;21.28;28.39
76054;BME280;64752;48.870;9.082;2024-03-25T10:37:56;97049.28;;;20.10;30.13
76054;BME280;64752;48.870;9.082;2024-03-25T10:40:24;97050.00;;;21.28;28.39
76054;BME280;64752;48.870;9.082;2024-03-25T10:42:59;97060.59;;;22.91;27.85
76054;BME280;64752;48.870;9.082;2024-03-25T10:45:26;97049.75;;;23.55;25.16
76054;BME280;64752;48.870;9.082;2024-03-25T10:47:55;97044.44;;;22.50;26.99
76054;BME280;64752;48.870;9.082;2024-03-25T10:50:26;97048.53;;;22.44;26.41
76054;BME280;64752;48.870;9.082;2024-03-25T10:52:53;97044.75;;;22.29;26.08
76054;BME280;64752;48.870;9.082;2024-03-25T10:55:20;97035.75;;;19.64;29.41
76054;BME280;64752;48.870;9.082;2024-03-25T10:57:48;97032.09;;;21.59;27.48
76054;BME280;64752;48.870;9.082;2024-03-25T11:00:14;97040.50;;;22.98;26.01
76054;BME280;64752;48.870;9.082;2024-03-25T11:02:42;97032.34;;;23.86;25.42
76054;BME280;64752;48.870;9.082;2024-03-25T11:05:09;97030.63;;;22.38;26.14
76054;BME280;64752;48.870;9.082;2024-03-25T11:07:36;97028.06;;;18.80;30.18
76054;BME280;64752;48.870;9.082;2024-03-25T11:10:07;97028.88;;;19.02;29.95
76054;BME280;64752;48.870;9.082;2024-03-25T11:12:37;97011.25;;;19.64;29.32
76054;BME280;64752;48.870;9.082;2024-03-25T11:15:06;97010.31;;;20.82;28.42
76054;BME280;64752;48.870;9.082;2024-03-25T11:17:32;97000.50;;;18.96;29.95
76054;BME280;64752;48.870;9.082;2024-03-25T11:22:52;96993.16;;;21.43;26.91
76054;BME280;64752;48.870;9.082;2024-03-25T11:25:20;96994.38;;;21.94;26.44
76054;BME280;64752;48.870;9.082;2024-03-25T11:27:47;96992.78;;;20.24;27.71
76054;BME280;64752;48.870;9.082;2024-03-25T11:30:15;96990.31;;;22.54;27.12
76054;BME280;64752;48.870;9.082;2024-03-25T11:32:51;96981.94;;;23.62;25.35
76054;BME280;64752;48.870;9.082;2024-03-25T11:35:16;96977.53;;;19.98;29.30
76054;BME280;64752;48.870;9.082;2024-03-25T11:37:42;96975.50;;;23.64;25.33
76054;BME280;64752;48.870;9.082;2024-03-25T11:40:08;96967.97;;;24.76;24.63
76054;BME280;64752;48.870;9.082;2024-03-25T11:42:40;96964.00;;;24.48;25.22
76054;BME280;64752;48.870;9.082;2024-03-25T11:45:07;96968.34;;;22.80;26.89
76054;BME280;64752;48.870;9.082;2024-03-25T11:47:33;96959.81;;;23.71;25.65
76054;BME280;64752;48.870;9.082;2024-03-25T11:49:58;96942.75;;;23.74;24.91
76054;BME280;64752;48.870;9.082;2024-03-25T11:52:24;96946.09;;;24.00;24.86
76054;BME280;64752;48.870;9.082;2024-03-25T11:54:56;96940.50;;;24.53;24.33
76054;BME280;64752;48.870;9.082;2024-03-25T11:57:22;96927.16;;;22.43;26.53
76054;BME280;64752;48.870;9.082;2024-03-25T11:59:47;96929.81;;;22.77;25.77
76054;BME280;64752;48.870;9.082;2024-03-25T12:02:16;96930.00;;;21.87;26.40
76054;BME280;64752;48.870;9.082;2024-03-25T12:04:45;96924.19;;;20.26;29.09
76054;BME280;64752;48.870;9.082;2024-03-25T12:07:12;96913.84;;;20.62;28.92
76054;BME280;64752;48.870;9.082;2024-03-25T12:09:37;96909.03;;;21.40;26.97
76054;BME280;64752;48.870;9.082;2024-03-25T12:12:21;96903.94;;;22.89;25.96
76054;BME280;64752;48.870;9.082;2024-03-25T12:14:47;96899.94;;;21.07;28.21
76054;BME280;64752;48.870;9.082;2024-03-25T12:17:13;96894.56;;;22.16;27.26
76054;BME280;64752;48.870;9.082;2024-03-25T12:19:38;96898.59;;;22.46;26.68
76054;BME280;64752;48.870;9.082;2024-03-25T12:22:04;96886.66;;;19.65;29.42
76054;BME280;64752;48.870;9.082;2024-03-25T12:24:29;96891.09;;;20.98;28.68
76054;BME280;64752;48.870;9.082;2024-03-25T12:26:55;96887.41;;;22.26;27.74
76054;BME280;64752;48.870;9.082;2024-03-25T12:29:20;96871.53;;;21.01;28.18
76054;BME280;64752;48.870;9.082;2024-03-25T12:31:56;96870.00;;;21.44;28.32
76054;BME280;64752;48.870;9.082;2024-03-25T12:34:22;96858.84;;;19.92;30.89
76054;BME280;64752;48.870;9.082;2024-03-25T12:36:50;96843.56;;;19.07;31.44
76054;BME280;64752;48.870;9.082;2024-03-25T12:39:19;96841.94;;;19.26;29.88
76054;BME280;64752;48.870;9.082;2024-03-25T12:41:44;96838.03;;;20.08;30.17
76054;BME280;64752;48.870;9.082;2024-03-25T12:44:12;96838.59;;;21.50;28.18
76054;BME280;64752;48.870;9.082;2024-03-25T12:46:38;96826.66;;;21.28;28.67
76054;BME280;64752;48.870;9.082;2024-03-25T12:49:07;96830.50;;;20.70;29.56
76054;BME280;64752;48.870;9.082;2024-03-25T12:51:33;96820.50;;;19.31;29.93
76054;BME280;64752;48.870;9.082;2024-03-25T12:53:58;96811.91;;;19.77;29.95
76054;BME280;64752;48.870;9.082;2024-03-25T12:56:24;96804.34;;;17.62;33.04
76054;BME280;64752;48.870;9.082;2024-03-25T12:58:50;96807.47;;;18.59;31.75
76054;BME280;64752;48.870;9.082;2024-03-25T13:01:15;96798.25;;;20.21;29.77